If you wish to contribute or participate in the discussions about articles you are invited to join SKYbrary as a registered user

 Actions

Normanton Airport

From SKYbrary Wiki

YNTN
Airport
ICAO: YNTN – IATA: NTN
Summary
Name Normanton Airport
Region Asia and Pacific
Territory "YN" is not in the list (AG, AN, AY, BG, BI, BK, C, CT, DA, DB, ...) of allowed values for the "ICAO Territory" property.
Location , Queensland
Serving Normanton
Elevation 22.25 m
73 ft
73 ft22.25 m
Type medium airport
Coordinates 17° 41' 0.96" S, 141° 4' 12.00" E
Runways
Designator Length Width Surface ROPS
14/32 1676 m5,498.688 ft
30 m98.425 ft
ASP /


METAR
Observation YNTN 200100Z AUTO 31012KT 290V350 9999 // SCT040 35/22 Q1010
Station Normanton Airport
Date/Time 20 November 2019 01:00:00
Wind direction 310°
Wind speed 12 kts
Lowest cloud amount scattered clouds
Temperature 35°C
Dew point 22°C
Humidity 47%
QNH 1010 hPa
Weather condition n/a